Time;durP1;ratioP1;P1;durP2;ratioP2;P2;SDS_P1;SDS_P2;PMS_P1;PMS_P2;Temp;Humidity;BMP_temperature;BMP_pressure;BME280_temperature;BME280_humidity;BME280_pressure;Samples;Min_cycle;Max_cycle;Signal;HPM_P1;HPM_P2
2022/08/30 00:03:26;;;;;;;6.88;4.63;;;24.50;65.10;;;;;;5040908;28;20124;-59
2022/08/30 00:05:52;;;;;;;5.00;4.50;;;24.50;65.10;;;;;;5051161;28;20447;-60
2022/08/30 00:08:18;;;;;;;5.80;4.30;;;24.50;65.10;;;;;;5044172;28;20033;-60
2022/08/30 00:10:45;;;;;;;5.22;4.13;;;24.50;65.10;;;;;;5051904;28;20084;-57
2022/08/30 00:13:12;;;;;;;5.13;3.83;;;24.40;65.20;;;;;;5052837;28;20033;-57
2022/08/30 00:15:42;;;;;;;5.30;3.95;;;24.50;65.30;;;;;;5048129;28;20032;-58
2022/08/30 00:18:09;;;;;;;5.43;4.33;;;24.50;65.30;;;;;;5027435;28;20083;-60
2022/08/30 00:20:35;;;;;;;5.72;3.92;;;24.50;65.30;;;;;;5049981;28;20162;-59
2022/08/30 00:23:02;;;;;;;4.75;3.97;;;24.50;65.30;;;;;;5048169;28;20025;-57
2022/08/30 00:25:28;;;;;;;5.65;4.00;;;24.40;65.40;;;;;;5049639;28;20146;-59
2022/08/30 00:27:53;;;;;;;5.10;4.20;;;24.50;65.50;;;;;;5052850;28;20512;-57
2022/08/30 00:30:20;;;;;;;5.00;4.30;;;24.50;65.40;;;;;;5050564;28;20032;-59
2022/08/30 00:32:46;;;;;;;5.65;4.40;;;24.50;65.50;;;;;;5049638;28;20062;-59
2022/08/30 00:35:15;;;;;;;5.82;4.43;;;24.50;65.60;;;;;;5045244;28;20107;-58
2022/08/30 00:37:40;;;;;;;6.50;4.28;;;24.50;65.60;;;;;;5047843;28;20036;-59
2022/08/30 00:40:08;;;;;;;6.20;4.10;;;24.50;65.60;;;;;;5028785;28;20527;-57
2022/08/30 00:42:35;;;;;;;5.10;4.35;;;24.50;65.70;;;;;;5026148;28;20128;-59
2022/08/30 00:45:20;;;;;;;4.78;3.80;;;24.50;65.80;;;;;;5050414;28;20100;-56
2022/08/30 00:47:46;;;;;;;5.88;4.43;;;24.50;65.60;;;;;;5050244;28;20033;-58
2022/08/30 00:50:16;;;;;;;6.55;4.53;;;24.40;65.60;;;;;;5053506;28;20025;-60
2022/08/30 00:52:46;;;;;;;6.78;4.32;;;24.50;65.90;;;;;;5054420;28;20042;-58
2022/08/30 00:55:13;;;;;;;4.45;3.60;;;24.40;65.90;;;;;;5054181;28;20451;-57
2022/08/30 00:57:42;;;;;;;5.03;3.88;;;24.40;65.90;;;;;;5051651;28;20044;-58
2022/08/30 01:00:08;;;;;;;5.55;3.92;;;24.40;65.90;;;;;;5055215;28;20029;-57
2022/08/30 01:02:34;;;;;;;5.72;4.25;;;24.40;65.90;;;;;;5051018;28;20031;-57
2022/08/30 01:05:03;;;;;;;5.32;4.32;;;24.40;65.90;;;;;;5052330;28;20147;-57
2022/08/30 01:07:29;;;;;;;5.25;4.13;;;24.40;66.00;;;;;;5055359;28;20021;-57
2022/08/30 01:09:55;;;;;;;5.03;4.00;;;24.40;66.10;;;;;;5051705;28;20032;-57
2022/08/30 01:12:22;;;;;;;5.25;3.95;;;24.30;66.10;;;;;;5054436;28;20365;-58
2022/08/30 01:14:49;;;;;;;5.43;4.50;;;24.30;66.20;;;;;;5050651;28;20033;-57
2022/08/30 01:17:16;;;;;;;5.47;3.80;;;24.30;66.30;;;;;;5055256;28;20032;-59
2022/08/30 01:19:51;;;;;;;5.45;4.28;;;24.30;66.50;;;;;;5051692;28;20033;-61
2022/08/30 01:22:36;;;;;;;5.43;4.38;;;24.30;66.50;;;;;;5049707;28;20036;-57
2022/08/30 01:25:05;;;;;;;4.32;3.88;;;24.30;66.60;;;;;;5050488;28;20098;-58
2022/08/30 01:27:31;;;;;;;5.28;4.10;;;24.20;67.30;;;;;;5054848;28;20078;-57
2022/08/30 01:29:58;;;;;;;5.50;4.35;;;24.20;66.60;;;;;;5044531;28;20433;-57
2022/08/30 01:32:27;;;;;;;5.03;4.07;;;24.20;66.80;;;;;;5051816;28;20041;-57
2022/08/30 01:34:54;;;;;;;5.63;4.55;;;24.20;66.80;;;;;;5052478;28;20175;-57
2022/08/30 01:37:28;;;;;;;6.20;4.82;;;24.10;66.90;;;;;;5048286;28;20025;-57
2022/08/30 01:39:54;;;;;;;7.00;4.55;;;24.10;67.10;;;;;;5055770;28;20013;-57
2022/08/30 01:42:21;;;;;;;5.18;4.68;;;24.10;67.20;;;;;;5036122;28;20036;-60
2022/08/30 01:44:47;;;;;;;5.88;4.10;;;24.20;67.30;;;;;;5046966;28;20036;-57
2022/08/30 01:47:14;;;;;;;5.75;4.45;;;24.10;67.50;;;;;;5048827;28;20044;-58
2022/08/30 01:49:40;;;;;;;4.80;4.25;;;24.10;67.40;;;;;;5054284;28;20028;-59
2022/08/30 01:52:07;;;;;;;4.72;4.07;;;24.10;67.60;;;;;;5035492;28;20036;-57
2022/08/30 01:54:35;;;;;;;4.65;3.70;;;24.10;67.70;;;;;;5048562;28;20071;-59
2022/08/30 01:57:02;;;;;;;5.40;4.30;;;24.10;67.70;;;;;;5049218;28;20029;-59
2022/08/30 01:59:27;;;;;;;4.68;4.18;;;24.10;67.80;;;;;;5051674;28;20039;-58
2022/08/30 02:01:53;;;;;;;6.13;4.32;;;24.00;67.90;;;;;;5048573;28;20029;-58
2022/08/30 02:04:19;;;;;;;5.25;4.50;;;24.00;68.00;;;;;;5052642;28;20031;-58
2022/08/30 02:06:45;;;;;;;5.15;4.40;;;24.00;68.10;;;;;;5053832;28;20067;-58
2022/08/30 02:09:11;;;;;;;5.28;4.18;;;24.00;68.20;;;;;;5051848;28;20068;-59
2022/08/30 02:11:38;;;;;;;4.60;4.10;;;24.00;68.30;;;;;;5060786;28;20060;-58
2022/08/30 02:14:04;;;;;;;5.13;4.22;;;24.00;68.30;;;;;;5051240;28;20032;-57
2022/08/30 02:16:30;;;;;;;5.72;4.45;;;24.00;68.40;;;;;;5051517;28;20025;-57
2022/08/30 02:18:56;;;;;;;4.57;3.90;;;24.00;68.50;;;;;;5045874;28;20036;-59
2022/08/30 02:21:23;;;;;;;5.68;4.25;;;24.00;68.50;;;;;;5048810;28;20029;-58
2022/08/30 02:23:49;;;;;;;5.75;4.53;;;24.00;68.60;;;;;;5051963;28;20450;-57
2022/08/30 02:26:16;;;;;;;6.00;4.68;;;24.00;68.60;;;;;;5048735;28;20083;-58
2022/08/30 02:28:43;;;;;;;5.57;4.55;;;24.00;68.70;;;;;;5053236;28;20024;-58
2022/08/30 02:31:09;;;;;;;5.57;4.30;;;24.00;68.70;;;;;;5049519;28;20035;-59
2022/08/30 02:33:35;;;;;;;5.38;4.47;;;24.00;68.90;;;;;;5052596;28;20025;-58
2022/08/30 02:36:01;;;;;;;5.63;4.82;;;24.00;68.80;;;;;;5052081;28;20043;-57
2022/08/30 02:38:28;;;;;;;5.82;5.13;;;24.00;69.00;;;;;;5049578;28;20025;-57
2022/08/30 02:40:54;;;;;;;8.60;5.35;;;24.00;69.00;;;;;;5052680;28;20037;-60
2022/08/30 02:43:19;;;;;;;5.88;4.88;;;24.00;69.00;;;;;;5025594;28;20028;-58
2022/08/30 02:45:45;;;;;;;5.80;4.82;;;24.00;69.10;;;;;;5044099;28;20024;-57
2022/08/30 02:48:11;;;;;;;5.63;4.45;;;23.90;69.00;;;;;;5051127;28;20514;-59
2022/08/30 02:50:41;;;;;;;7.32;5.25;;;23.90;69.10;;;;;;5046936;28;20017;-58
2022/08/30 02:53:07;;;;;;;6.18;4.60;;;23.90;69.20;;;;;;5051705;28;20112;-57
2022/08/30 02:55:33;;;;;;;7.03;5.32;;;23.90;69.30;;;;;;5052222;28;20092;-57
2022/08/30 02:57:58;;;;;;;5.72;4.68;;;23.90;69.30;;;;;;5050780;28;20052;-58
2022/08/30 03:00:24;;;;;;;6.65;5.03;;;23.90;69.30;;;;;;5053341;28;20028;-58
2022/08/30 03:02:50;;;;;;;7.30;5.07;;;23.80;69.40;;;;;;5051235;28;20036;-59
2022/08/30 03:05:16;;;;;;;6.28;5.15;;;23.80;69.50;;;;;;5050692;28;20123;-57
2022/08/30 03:07:44;;;;;;;6.40;5.35;;;23.80;69.50;;;;;;5053261;28;20070;-57
2022/08/30 03:10:10;;;;;;;5.97;4.68;;;23.80;69.60;;;;;;5055407;28;20448;-57
2022/08/30 03:12:36;;;;;;;6.55;5.10;;;23.70;69.70;;;;;;5052967;28;20112;-57
2022/08/30 03:15:02;;;;;;;5.43;4.57;;;23.70;69.60;;;;;;5047249;28;20096;-57
2022/08/30 03:17:29;;;;;;;5.95;4.43;;;23.70;69.70;;;;;;5051655;28;20078;-60
2022/08/30 03:19:54;;;;;;;6.53;5.25;;;23.70;69.80;;;;;;5050552;28;20021;-58
2022/08/30 03:22:20;;;;;;;6.25;4.93;;;23.70;69.90;;;;;;5052150;28;20077;-60
2022/08/30 03:24:46;;;;;;;7.03;5.07;;;23.70;69.90;;;;;;5048489;28;20086;-60
2022/08/30 03:27:11;;;;;;;5.35;4.68;;;23.80;70.00;;;;;;5052239;28;20028;-57
2022/08/30 03:29:38;;;;;;;6.13;4.80;;;23.80;69.90;;;;;;5049246;28;20080;-57
2022/08/30 03:32:05;;;;;;;7.63;5.53;;;23.80;70.10;;;;;;5048672;28;20029;-60
2022/08/30 03:34:31;;;;;;;5.47;4.68;;;23.80;70.10;;;;;;5048600;28;20027;-59
2022/08/30 03:36:57;;;;;;;5.43;4.78;;;23.80;70.10;;;;;;5049233;28;20045;-60
2022/08/30 03:39:24;;;;;;;5.50;4.50;;;23.90;70.10;;;;;;5050316;28;20032;-59
2022/08/30 03:41:50;;;;;;;5.45;4.57;;;23.90;70.20;;;;;;5049707;28;20028;-57
2022/08/30 03:44:15;;;;;;;6.45;5.15;;;23.90;70.20;;;;;;5050829;28;20112;-60
2022/08/30 03:46:41;;;;;;;5.93;4.40;;;23.90;70.20;;;;;;5046650;28;20548;-59
2022/08/30 03:49:07;;;;;;;6.78;4.90;;;23.90;70.20;;;;;;5045109;28;20025;-57
2022/08/30 03:51:33;;;;;;;5.10;4.43;;;24.00;70.20;;;;;;5051729;28;20033;-60
2022/08/30 03:54:00;;;;;;;5.68;4.63;;;24.00;70.10;;;;;;5050949;28;20453;-61
2022/08/30 03:56:26;;;;;;;5.80;4.70;;;24.00;70.10;;;;;;5051621;28;20108;-60
2022/08/30 03:58:52;;;;;;;5.80;4.63;;;24.10;70.20;;;;;;5051952;28;20437;-60
2022/08/30 04:01:17;;;;;;;6.22;4.95;;;24.10;70.20;;;;;;5047228;28;20064;-60
2022/08/30 04:03:43;;;;;;;7.05;4.60;;;24.10;70.20;;;;;;5048216;28;20517;-59
2022/08/30 04:06:10;;;;;;;6.03;4.65;;;24.10;70.20;;;;;;5043266;28;20057;-59
2022/08/30 04:08:37;;;;;;;5.97;4.90;;;24.10;70.20;;;;;;5051594;28;20041;-60
2022/08/30 04:11:04;;;;;;;5.68;4.72;;;24.10;70.20;;;;;;5062103;28;20032;-60
2022/08/30 04:13:29;;;;;;;7.78;4.75;;;24.10;70.30;;;;;;5051069;28;20025;-60
2022/08/30 04:15:55;;;;;;;6.63;4.82;;;24.20;70.30;;;;;;5049775;28;20029;-59
2022/08/30 04:18:21;;;;;;;6.15;4.70;;;24.20;70.40;;;;;;5048211;28;20116;-61
2022/08/30 04:20:47;;;;;;;5.65;4.72;;;24.30;70.40;;;;;;5051023;28;20021;-60
2022/08/30 04:23:13;;;;;;;6.10;4.65;;;24.30;70.40;;;;;;5033626;28;20104;-59
2022/08/30 04:25:40;;;;;;;6.53;4.80;;;24.40;70.50;;;;;;5054318;28;20107;-59
2022/08/30 04:28:08;;;;;;;5.53;4.40;;;24.40;70.90;;;;;;5055659;28;20028;-59
2022/08/30 04:30:37;;;;;;;6.45;4.88;;;24.50;70.20;;;;;;5056436;28;20024;-60
2022/08/30 04:33:03;;;;;;;5.38;4.57;;;24.50;70.20;;;;;;5054130;28;20037;-58
2022/08/30 04:35:28;;;;;;;5.35;4.78;;;24.60;70.30;;;;;;5054374;28;20427;-60
2022/08/30 04:37:54;;;;;;;6.68;4.80;;;24.60;70.10;;;;;;5054944;28;20021;-60
2022/08/30 04:40:20;;;;;;;5.65;4.75;;;24.70;70.20;;;;;;5043022;28;20031;-60
2022/08/30 04:42:46;;;;;;;6.32;4.40;;;24.70;70.00;;;;;;5048562;28;20109;-60
2022/08/30 04:45:15;;;;;;;6.32;4.90;;;24.70;70.00;;;;;;5033497;28;20476;-59
2022/08/30 04:47:42;;;;;;;6.35;4.85;;;24.80;70.10;;;;;;5053815;28;20029;-57
2022/08/30 04:50:10;;;;;;;6.13;5.05;;;24.80;70.20;;;;;;5054315;28;20029;-60
2022/08/30 04:52:36;;;;;;;5.63;4.68;;;24.80;70.40;;;;;;5049893;28;20128;-60
2022/08/30 04:55:03;;;;;;;6.47;4.93;;;24.80;70.10;;;;;;5054677;28;20104;-60
2022/08/30 04:57:28;;;;;;;5.82;4.63;;;24.90;70.20;;;;;;5055879;28;20025;-60
2022/08/30 04:59:54;;;;;;;7.10;5.20;;;24.90;70.10;;;;;;5029400;28;20453;-59
2022/08/30 05:02:20;;;;;;;5.47;4.88;;;25.00;70.20;;;;;;5054355;28;20060;-60
2022/08/30 05:07:31;;;;;;;7.75;5.90;;;25.20;70.10;;;;;;5054825;28;20032;-60
2022/08/30 05:09:57;;;;;;;6.57;5.07;;;25.40;70.00;;;;;;5050269;28;20079;-60
2022/08/30 05:12:23;;;;;;;7.15;5.35;;;25.50;69.80;;;;;;5057458;28;20024;-60
2022/08/30 05:14:49;;;;;;;6.75;5.55;;;25.70;69.50;;;;;;5046961;28;20064;-60
2022/08/30 05:17:15;;;;;;;6.70;5.10;;;25.90;69.40;;;;;;5053475;28;20531;-60
2022/08/30 05:19:41;;;;;;;7.45;5.60;;;26.10;69.10;;;;;;5050837;28;20053;-59
2022/08/30 05:22:07;;;;;;;6.30;5.15;;;26.30;68.80;;;;;;5054487;28;20037;-60
2022/08/30 05:24:33;;;;;;;6.22;5.20;;;26.50;68.70;;;;;;5052235;28;20033;-57
2022/08/30 05:26:59;;;;;;;6.40;5.18;;;26.60;68.50;;;;;;5055274;28;20093;-60
2022/08/30 05:29:25;;;;;;;6.28;5.18;;;26.80;68.40;;;;;;5054680;28;20029;-57
2022/08/30 05:31:51;;;;;;;5.57;4.40;;;26.90;68.10;;;;;;5055568;28;20036;-57
2022/08/30 05:34:16;;;;;;;5.22;4.38;;;26.90;68.20;;;;;;5053178;28;20078;-60
2022/08/30 05:36:42;;;;;;;5.65;4.60;;;26.90;68.10;;;;;;5049472;28;20060;-58
2022/08/30 05:39:09;;;;;;;6.13;4.80;;;27.00;68.20;;;;;;5045093;28;20025;-58
2022/08/30 05:41:36;;;;;;;6.05;4.95;;;27.00;68.00;;;;;;5046079;28;20388;-58
2022/08/30 05:44:04;;;;;;;6.35;4.78;;;27.10;68.10;;;;;;5043985;28;20033;-58
2022/08/30 05:46:33;;;;;;;5.90;4.72;;;27.20;67.90;;;;;;5047511;28;20033;-60
2022/08/30 05:49:00;;;;;;;5.68;4.63;;;27.30;67.70;;;;;;5044956;28;20142;-60
2022/08/30 05:51:28;;;;;;;6.38;4.70;;;27.30;67.60;;;;;;5039394;28;20033;-59
2022/08/30 05:53:54;;;;;;;6.43;4.95;;;27.40;67.40;;;;;;5039802;28;20078;-57
2022/08/30 05:56:23;;;;;;;6.32;4.97;;;27.30;67.60;;;;;;5045558;28;20021;-59
2022/08/30 05:58:49;;;;;;;5.97;4.53;;;27.30;67.70;;;;;;5039355;28;20103;-60
2022/08/30 06:01:20;;;;;;;4.65;4.03;;;27.30;67.80;;;;;;5038116;28;20035;-59
2022/08/30 06:03:46;;;;;;;6.10;4.70;;;27.30;68.00;;;;;;5035616;28;20029;-58
2022/08/30 06:06:12;;;;;;;5.55;4.65;;;27.20;68.10;;;;;;5036660;28;20538;-59
2022/08/30 06:08:37;;;;;;;5.68;4.78;;;27.20;68.20;;;;;;5035261;28;20029;-58
2022/08/30 06:11:03;;;;;;;5.38;4.35;;;27.20;68.30;;;;;;5037243;28;20495;-58
2022/08/30 06:13:29;;;;;;;5.30;4.63;;;27.20;68.40;;;;;;5032175;28;20113;-59
2022/08/30 06:15:54;;;;;;;6.88;5.25;;;27.20;68.40;;;;;;5034415;28;20035;-59
2022/08/30 06:18:20;;;;;;;4.68;4.15;;;27.10;68.40;;;;;;5031081;28;20435;-59
2022/08/30 06:20:50;;;;;;;5.40;4.32;;;27.10;68.50;;;;;;5032171;28;20063;-58
2022/08/30 06:23:16;;;;;;;5.93;4.90;;;27.10;68.50;;;;;;5034145;28;20030;-59
2022/08/30 06:25:43;;;;;;;5.55;4.63;;;27.10;68.70;;;;;;5032494;28;20095;-57
2022/08/30 06:28:09;;;;;;;5.28;4.63;;;27.10;68.70;;;;;;5035388;28;20129;-58
2022/08/30 06:30:38;;;;;;;6.57;5.13;;;27.10;68.70;;;;;;5029839;28;20116;-59
2022/08/30 06:33:09;;;;;;;6.75;5.38;;;27.10;68.60;;;;;;5026028;28;20033;-58
2022/08/30 06:35:35;;;;;;;4.60;4.10;;;27.10;68.50;;;;;;5030085;28;20075;-59
2022/08/30 06:38:02;;;;;;;5.32;4.43;;;27.10;68.50;;;;;;5026216;28;20485;-61
2022/08/30 06:40:27;;;;;;;6.32;5.15;;;27.10;68.70;;;;;;5024942;28;21637;-61
2022/08/30 06:42:53;;;;;;;6.88;4.70;;;27.10;68.60;;;;;;5031358;28;20021;-57
2022/08/30 06:45:19;;;;;;;5.72;4.70;;;27.10;68.60;;;;;;5029740;28;20117;-57
2022/08/30 06:47:46;;;;;;;6.28;4.90;;;27.10;68.60;;;;;;5034040;28;20369;-58
2022/08/30 06:50:13;;;;;;;7.70;5.60;;;27.10;68.60;;;;;;5025003;28;20143;-60
2022/08/30 06:52:41;;;;;;;5.82;4.95;;;27.10;68.80;;;;;;5024288;28;20067;-59
2022/08/30 06:55:08;;;;;;;6.13;5.03;;;27.10;68.80;;;;;;5029600;28;20043;-58
2022/08/30 06:57:34;;;;;;;4.57;3.90;;;27.10;68.90;;;;;;5023530;28;20079;-60
2022/08/30 07:00:01;;;;;;;5.55;4.43;;;27.10;68.80;;;;;;5008216;28;20844;-62
2022/08/30 07:02:26;;;;;;;5.82;4.65;;;27.10;68.80;;;;;;5015354;28;20065;-59
2022/08/30 07:04:53;;;;;;;5.30;4.75;;;27.10;68.80;;;;;;5023259;28;20043;-60
2022/08/30 07:07:19;;;;;;;5.50;4.45;;;27.10;68.80;;;;;;5025851;28;20064;-60
2022/08/30 07:09:45;;;;;;;6.30;4.40;;;27.10;68.80;;;;;;5019726;28;20451;-58
2022/08/30 07:12:12;;;;;;;5.30;4.13;;;27.10;68.80;;;;;;5023506;28;20035;-58
2022/08/30 07:14:39;;;;;;;6.47;4.97;;;27.10;68.80;;;;;;5018600;28;20041;-60
2022/08/30 07:18:49;;;;;;;6.97;5.05;;;27.10;68.80;;;;;;5026552;28;20037;-59
2022/08/30 07:19:55;;;;;;;5.78;4.68;;;27.10;68.80;;;;;;5028499;28;20086;-59
2022/08/30 07:22:20;;;;;;;5.70;4.50;;;27.10;68.80;;;;;;5024668;28;20033;-59
2022/08/30 07:24:47;;;;;;;6.07;4.50;;;27.10;69.00;;;;;;5025585;28;20033;-58
2022/08/30 07:27:13;;;;;;;5.82;4.43;;;27.10;69.00;;;;;;5024512;28;20033;-58
2022/08/30 07:29:39;;;;;;;5.25;4.55;;;27.10;69.10;;;;;;5029116;28;20067;-60
2022/08/30 07:32:05;;;;;;;5.78;4.57;;;27.20;69.20;;;;;;5027098;28;20033;-59
2022/08/30 07:34:30;;;;;;;6.50;4.82;;;27.20;69.30;;;;;;5024971;28;20210;-58
2022/08/30 07:36:56;;;;;;;5.88;4.72;;;27.20;69.30;;;;;;5021661;28;20580;-60
2022/08/30 07:39:22;;;;;;;5.70;4.55;;;27.20;69.30;;;;;;5019927;28;21882;-59
2022/08/30 07:41:48;;;;;;;5.18;4.38;;;27.20;69.40;;;;;;5030162;28;20033;-57
2022/08/30 07:44:14;;;;;;;5.57;4.53;;;27.20;69.40;;;;;;5022175;28;20064;-62
2022/08/30 07:46:40;;;;;;;5.05;4.25;;;27.20;69.50;;;;;;5024104;28;20129;-59
2022/08/30 07:49:06;;;;;;;5.55;4.38;;;27.20;69.60;;;;;;5009205;28;20040;-58
2022/08/30 07:54:55;;;;;;;5.45;4.85;;;27.30;69.70;;;;;;5021350;28;20122;-59
2022/08/30 07:57:21;;;;;;;6.45;4.15;;;27.30;69.50;;;;;;5025701;28;20025;-60
2022/08/30 07:59:47;;;;;;;5.60;4.38;;;27.30;69.40;;;;;;5027975;28;20021;-61
2022/08/30 08:02:12;;;;;;;6.55;4.20;;;27.30;69.50;;;;;;5019389;28;20477;-59
2022/08/30 08:04:38;;;;;;;5.07;3.90;;;27.30;69.50;;;;;;5019687;28;20033;-61
2022/08/30 08:07:04;;;;;;;4.90;3.88;;;27.20;69.60;;;;;;5007980;28;20123;-59
2022/08/30 08:09:30;;;;;;;5.45;4.43;;;27.20;69.70;;;;;;5022160;28;20202;-60
2022/08/30 08:11:56;;;;;;;5.55;4.13;;;27.30;69.60;;;;;;5019177;28;20029;-60
2022/08/30 08:14:22;;;;;;;5.35;3.70;;;27.30;69.70;;;;;;5020803;28;20029;-58
2022/08/30 08:16:48;;;;;;;4.07;3.55;;;27.20;69.70;;;;;;5028282;28;20029;-60
2022/08/30 08:19:14;;;;;;;5.30;4.55;;;27.20;69.90;;;;;;5027037;28;21754;-59
2022/08/30 08:21:40;;;;;;;5.47;3.90;;;27.20;69.80;;;;;;5026420;28;20036;-59
2022/08/30 08:24:06;;;;;;;5.47;3.95;;;27.20;69.80;;;;;;5027047;28;20032;-58
2022/08/30 08:26:35;;;;;;;4.53;3.67;;;27.20;69.90;;;;;;5022480;28;20045;-58
2022/08/30 08:29:01;;;;;;;5.25;4.10;;;27.20;69.90;;;;;;5022060;28;20043;-58
2022/08/30 08:31:27;;;;;;;4.50;3.63;;;27.20;70.00;;;;;;5018784;28;20033;-58
2022/08/30 08:33:54;;;;;;;4.85;4.10;;;27.20;69.90;;;;;;5023888;28;20029;-57
2022/08/30 08:36:20;;;;;;;5.03;3.92;;;27.20;69.90;;;;;;5018556;28;20049;-57
2022/08/30 08:38:46;;;;;;;5.03;4.10;;;27.30;69.90;;;;;;5015895;28;20032;-60
2022/08/30 08:41:36;;;;;;;4.78;3.97;;;27.30;70.00;;;;;;5016409;28;20037;-58
2022/08/30 08:44:14;;;;;;;;;;;27.30;69.80;;;;;;5014224;28;20484;-58
2022/08/30 08:47:02;;;;;;;4.47;3.67;;;27.30;70.00;;;;;;5012125;28;19970;-58
2022/08/30 08:49:28;;;;;;;4.22;3.40;;;27.30;69.90;;;;;;5022371;28;20487;-60
2022/08/30 08:54:58;;;;;;;4.75;3.63;;;27.20;70.00;;;;;;5021459;28;20903;-61
2022/08/30 08:57:24;;;;;;;3.97;3.58;;;27.30;70.20;;;;;;5022905;28;20040;-58
2022/08/30 08:59:53;;;;;;;4.88;3.65;;;27.30;70.30;;;;;;5020323;28;20450;-57
2022/08/30 09:02:36;;;;;;;4.72;3.72;;;27.20;70.20;;;;;;5013731;28;20138;-59
2022/08/30 09:05:02;;;;;;;4.80;4.03;;;27.20;70.30;;;;;;5019262;28;20112;-58
2022/08/30 09:07:37;;;;;;;4.50;3.78;;;27.20;70.40;;;;;;5014885;28;20032;-61
2022/08/30 09:10:04;;;;;;;4.45;3.78;;;27.20;70.40;;;;;;5020845;28;20040;-61
2022/08/30 09:12:30;;;;;;;3.70;3.05;;;27.20;70.50;;;;;;5023365;28;20055;-59
2022/08/30 09:15:16;;;;;;;5.65;3.70;;;27.20;70.50;;;;;;5029820;28;20710;-57
2022/08/30 09:18:08;;;;;;;4.75;3.88;;;27.10;70.50;;;;;;5028321;28;20457;-59
2022/08/30 09:20:45;;;;;;;5.35;3.97;;;27.20;70.70;;;;;;5022873;28;20096;-59
2022/08/30 09:23:14;;;;;;;4.38;3.65;;;27.10;70.70;;;;;;5023263;28;20025;-59
2022/08/30 09:25:59;;;;;;;4.40;3.75;;;27.10;70.80;;;;;;5018607;28;20036;-59
2022/08/30 09:28:30;;;;;;;4.45;3.80;;;27.10;70.90;;;;;;5020891;28;20068;-58
2022/08/30 09:30:58;;;;;;;5.20;4.20;;;27.10;70.90;;;;;;5019068;28;20041;-58
2022/08/30 09:33:24;;;;;;;4.78;3.65;;;27.00;70.80;;;;;;5013674;28;20102;-59
2022/08/30 09:35:53;;;;;;;5.78;4.38;;;27.00;70.80;;;;;;5023400;28;20544;-60
2022/08/30 09:38:31;;;;;;;5.28;4.32;;;27.00;70.90;;;;;;5020136;28;20494;-60
2022/08/30 09:41:01;;;;;;;5.05;3.92;;;27.00;70.90;;;;;;5029532;28;20112;-58
2022/08/30 09:43:28;;;;;;;5.25;3.88;;;27.00;71.00;;;;;;5022147;28;20049;-59
2022/08/30 09:45:59;;;;;;;4.18;3.70;;;26.90;71.00;;;;;;5022720;28;20036;-59
2022/08/30 09:48:39;;;;;;;4.43;3.45;;;26.90;71.00;;;;;;5020236;28;20456;-58
2022/08/30 09:51:12;;;;;;;4.50;3.50;;;26.90;71.00;;;;;;5021617;28;20328;-58
2022/08/30 09:53:49;;;;;;;4.60;3.80;;;26.90;71.20;;;;;;5020182;28;20182;-58
2022/08/30 09:56:52;;;;;;;4.90;3.63;;;26.80;71.10;;;;;;5021235;28;20726;-60
2022/08/30 09:59:38;;;;;;;8.55;3.58;;;26.90;71.20;;;;;;5023101;28;20511;-60
2022/08/30 10:02:14;;;;;;;4.05;3.22;;;26.90;71.20;;;;;;5023761;28;20061;-57
2022/08/30 10:04:51;;;;;;;5.10;3.67;;;26.90;71.20;;;;;;5019289;28;20063;-61
2022/08/30 10:07:35;;;;;;;5.03;3.78;;;26.90;71.30;;;;;;5002810;28;20025;-57
2022/08/30 10:10:09;;;;;;;4.45;3.22;;;26.90;71.40;;;;;;5028217;28;20037;-58
2022/08/30 10:13:12;;;;;;;4.00;3.22;;;26.90;71.30;;;;;;5028527;28;20116;-59
2022/08/30 10:15:48;;;;;;;4.72;3.83;;;26.80;71.10;;;;;;4978933;28;20170;-59
2022/08/30 10:18:20;;;;;;;4.18;3.40;;;26.80;71.10;;;;;;5025537;28;20128;-58
2022/08/30 10:21:09;;;;;;;3.90;3.30;;;26.80;71.30;;;;;;5023922;28;20037;-59
2022/08/30 10:23:41;;;;;;;3.88;3.28;;;26.80;71.30;;;;;;5011359;28;21237;-58
2022/08/30 10:26:22;;;;;;;4.75;3.65;;;26.80;71.40;;;;;;5019039;28;20594;-57
2022/08/30 10:29:02;;;;;;;3.88;3.28;;;26.80;71.20;;;;;;5014613;28;20056;-57
2022/08/30 10:31:37;;;;;;;4.37;3.30;;;26.80;71.40;;;;;;5014697;28;20579;-58
2022/08/30 10:34:08;;;;;;;3.47;3.08;;;26.80;71.10;;;;;;5025010;28;20036;-60
2022/08/30 10:36:58;;;;;;;4.32;3.17;;;26.90;70.90;;;;;;5020665;28;20029;-57
2022/08/30 10:39:30;;;;;;;4.33;2.90;;;26.90;70.80;;;;;;5020231;28;20056;-60
2022/08/30 10:42:09;;;;;;;2.92;2.63;;;26.90;70.60;;;;;;5016986;28;20039;-59
2022/08/30 10:44:40;;;;;;;2.92;2.60;;;26.90;70.40;;;;;;5016822;28;20040;-60
2022/08/30 10:47:30;;;;;;;4.20;3.20;;;26.90;70.30;;;;;;5018865;28;20033;-59
2022/08/30 10:50:01;;;;;;;;;;;26.90;70.10;;;;;;5015286;28;20032;-58
2022/08/30 10:52:27;;;;;;;;;;;26.90;70.20;;;;;;5021103;28;19932;-58
2022/08/30 10:54:59;;;;;;;2.97;2.67;;;26.90;70.30;;;;;;5023933;28;20380;-61
2022/08/30 10:57:25;;;;;;;3.78;2.67;;;26.90;70.20;;;;;;5024733;28;20088;-60
2022/08/30 10:59:57;;;;;;;3.83;2.85;;;27.00;70.30;;;;;;5025442;28;20037;-58
2022/08/30 11:02:33;;;;;;;2.97;2.55;;;26.90;70.20;;;;;;5021022;28;20036;-59
2022/08/30 11:05:31;;;;;;;3.17;2.88;;;26.90;70.40;;;;;;5024116;28;20125;-58
2022/08/30 11:08:34;;;;;;;3.67;3.05;;;27.00;70.50;;;;;;4998933;28;20052;-61
2022/08/30 11:11:14;;;;;;;3.42;2.92;;;27.00;70.30;;;;;;5017860;28;20170;-58
2022/08/30 11:13:41;;;;;;;3.20;2.80;;;26.90;70.30;;;;;;5013032;28;20029;-60
2022/08/30 11:16:17;;;;;;;4.25;3.45;;;27.00;70.40;;;;;;5007169;28;20017;-58
2022/08/30 11:18:53;;;;;;;3.45;2.80;;;27.00;70.70;;;;;;5018532;28;20036;-59
2022/08/30 11:21:45;;;;;;;3.72;3.20;;;27.00;70.80;;;;;;5015408;28;20368;-61
2022/08/30 11:24:21;;;;;;;3.65;3.08;;;27.00;70.70;;;;;;5017926;28;20056;-59
2022/08/30 11:26:47;;;;;;;3.85;3.40;;;27.00;70.40;;;;;;5023206;28;20483;-58
2022/08/30 11:29:39;;;;;;;3.65;3.20;;;26.90;70.40;;;;;;5015268;28;20040;-60
2022/08/30 11:32:11;;;;;;;3.67;3.25;;;27.00;70.30;;;;;;5016156;28;20033;-62
2022/08/30 11:34:46;;;;;;;3.80;3.08;;;26.90;70.30;;;;;;5011896;28;20310;-60
2022/08/30 11:37:36;;;;;;;4.68;3.28;;;26.90;70.40;;;;;;5017757;28;20040;-60
2022/08/30 11:40:18;;;;;;;3.85;3.05;;;27.00;70.50;;;;;;5018328;28;20031;-60
2022/08/30 11:42:46;;;;;;;3.78;3.17;;;27.00;70.30;;;;;;5014704;28;20037;-58
2022/08/30 11:45:21;;;;;;;3.05;2.75;;;26.90;70.40;;;;;;4983148;28;20032;-61
2022/08/30 11:47:55;;;;;;;3.00;2.70;;;26.90;70.50;;;;;;5025549;28;20121;-62
2022/08/30 11:50:29;;;;;;;3.70;2.90;;;26.90;70.30;;;;;;5026605;28;20030;-58
2022/08/30 11:53:43;;;;;;;3.30;2.92;;;26.90;70.40;;;;;;5016114;28;20523;-59
2022/08/30 11:56:17;;;;;;;3.50;2.90;;;26.90;70.30;;;;;;4925424;28;20031;-59
2022/08/30 11:59:01;;;;;;;3.45;2.85;;;26.90;70.40;;;;;;5012094;28;20037;-59
2022/08/30 12:01:26;;;;;;;3.28;2.92;;;26.90;70.30;;;;;;5015879;28;20033;-60
2022/08/30 12:04:10;;;;;;;3.20;2.83;;;26.80;70.30;;;;;;5012257;28;20103;-59
2022/08/30 12:06:44;;;;;;;3.53;2.95;;;26.90;70.30;;;;;;5018709;28;20123;-62
2022/08/30 12:09:27;;;;;;;4.00;2.97;;;26.90;70.30;;;;;;5017476;28;20041;-61
2022/08/30 12:11:58;;;;;;;2.92;2.40;;;26.90;70.30;;;;;;5018725;28;20039;-61
2022/08/30 12:14:53;;;;;;;3.25;2.63;;;26.80;70.20;;;;;;5016063;28;20056;-60
2022/08/30 12:20:29;;;;;;;3.22;2.67;;;26.90;70.10;;;;;;5014705;28;20086;-60
2022/08/30 12:22:56;;;;;;;3.10;2.80;;;26.90;70.10;;;;;;5023476;28;20056;-58
2022/08/30 12:25:31;;;;;;;2.60;2.40;;;26.90;70.20;;;;;;5020416;28;20143;-58
2022/08/30 12:28:11;;;;;;;2.97;2.67;;;26.90;70.20;;;;;;5018149;28;20080;-58
2022/08/30 12:30:38;;;;;;;;;;;26.90;70.20;;;;;;5018422;28;20060;-59
2022/08/30 12:33:08;;;;;;;3.00;2.63;;;26.90;70.20;;;;;;5022480;28;21433;-59
2022/08/30 12:35:34;;;;;;;2.88;2.58;;;26.90;70.20;;;;;;5024415;28;20065;-58
2022/08/30 12:38:05;;;;;;;3.08;2.72;;;26.90;70.10;;;;;;5019808;28;20115;-58
2022/08/30 12:40:33;;;;;;;2.80;2.38;;;26.90;70.00;;;;;;5025876;28;20025;-60
2022/08/30 12:43:03;;;;;;;2.63;2.30;;;26.90;70.00;;;;;;5023682;28;20045;-61
2022/08/30 12:45:49;;;;;;;3.92;2.55;;;26.80;69.70;;;;;;5005024;28;20090;-58
2022/08/30 12:48:17;;;;;;;2.50;2.30;;;26.90;69.80;;;;;;5023354;28;20140;-59
2022/08/30 12:50:55;;;;;;;2.88;2.47;;;26.80;69.70;;;;;;5028083;28;20041;-58
2022/08/30 12:53:41;;;;;;;2.80;2.42;;;26.90;69.80;;;;;;5020621;28;20068;-60
2022/08/30 12:56:12;;;;;;;2.75;2.45;;;26.90;69.60;;;;;;5028299;28;20124;-60
2022/08/30 12:58:48;;;;;;;2.40;2.20;;;26.90;69.60;;;;;;5022401;28;20036;-60
2022/08/30 13:01:18;;;;;;;2.47;2.28;;;26.90;69.60;;;;;;5030857;28;20028;-59
2022/08/30 13:04:10;;;;;;;2.70;2.50;;;26.80;69.40;;;;;;5030731;28;20116;-59
2022/08/30 13:06:42;;;;;;;2.60;2.40;;;26.90;69.70;;;;;;5024336;28;20032;-58
2022/08/30 13:09:10;;;;;;;3.22;2.70;;;26.90;69.60;;;;;;5029170;28;20032;-60
2022/08/30 13:11:35;;;;;;;2.55;2.33;;;26.90;69.60;;;;;;5016186;28;21842;-60
2022/08/30 13:14:32;;;;;;;3.47;2.60;;;26.90;69.40;;;;;;5022424;28;20033;-58
2022/08/30 13:17:17;;;;;;;2.83;2.10;;;26.90;69.30;;;;;;5027717;28;20028;-60